createdAt,value
2023-04-19T00:01:28.531Z,0.90
2023-04-19T00:04:34.673Z,0.97
2023-04-19T00:07:39.850Z,1.10
2023-04-19T00:10:45.053Z,1.10
2023-04-19T00:13:51.527Z,0.90
2023-04-19T00:16:56.659Z,1.20
2023-04-19T00:20:01.769Z,1.20
2023-04-19T00:23:07.228Z,1.00
2023-04-19T00:26:15.772Z,0.90
2023-04-19T00:29:27.081Z,1.20
2023-04-19T00:32:32.234Z,1.13
2023-04-19T00:35:37.335Z,0.90
2023-04-19T00:38:42.621Z,1.00
2023-04-19T00:41:48.748Z,0.90
2023-04-19T00:44:56.732Z,1.07
2023-04-19T00:48:02.437Z,1.17
2023-04-19T00:51:07.859Z,1.00
2023-04-19T00:54:15.250Z,1.00
2023-04-19T00:57:21.804Z,1.40
2023-04-19T01:00:30.245Z,1.17
2023-04-19T01:03:36.790Z,1.00
2023-04-19T01:06:42.624Z,1.00
2023-04-19T01:09:49.427Z,0.90
2023-04-19T01:12:54.533Z,1.20
2023-04-19T01:16:01.835Z,1.20
2023-04-19T01:19:06.991Z,1.20
2023-04-19T01:22:18.350Z,0.90
2023-04-19T01:25:23.783Z,1.17
2023-04-19T01:28:29.040Z,1.00
2023-04-19T01:31:34.548Z,1.07
2023-04-19T01:34:42.980Z,1.20
2023-04-19T01:37:50.724Z,1.20
2023-04-19T01:40:57.348Z,1.10
2023-04-19T01:44:03.214Z,1.10
2023-04-19T01:47:08.655Z,0.90
2023-04-19T01:50:15.694Z,1.00
2023-04-19T01:53:22.256Z,1.10
2023-04-19T01:56:28.114Z,1.23
2023-04-19T01:59:33.258Z,1.07
2023-04-19T02:02:39.286Z,1.13
2023-04-19T02:05:44.466Z,1.10
2023-04-19T02:08:50.882Z,1.20
2023-04-19T02:11:56.277Z,1.50
2023-04-19T02:15:02.295Z,1.10
2023-04-19T02:18:13.626Z,1.10
2023-04-19T02:21:18.713Z,1.10
2023-04-19T02:24:27.098Z,1.20
2023-04-19T02:27:32.454Z,1.20
2023-04-19T02:30:39.163Z,1.10
2023-04-19T02:33:47.034Z,1.20
2023-04-19T02:36:53.567Z,1.20
2023-04-19T02:40:00.197Z,1.20
2023-04-19T02:43:07.448Z,1.13
2023-04-19T02:46:13.799Z,1.20
2023-04-19T02:49:18.928Z,1.10
2023-04-19T02:52:24.888Z,1.20
2023-04-19T02:55:31.442Z,1.10
2023-04-19T02:58:43.960Z,1.10
2023-04-19T03:01:50.743Z,1.10
2023-04-19T03:04:56.650Z,1.20
2023-04-19T03:08:01.982Z,1.27
2023-04-19T03:11:08.660Z,1.30
2023-04-19T03:14:15.102Z,1.20
2023-04-19T03:17:20.575Z,1.30
2023-04-19T03:20:26.280Z,1.20
2023-04-19T03:23:32.017Z,1.13
2023-04-19T03:26:40.797Z,1.33
2023-04-19T03:29:48.418Z,1.10
2023-04-19T03:32:54.226Z,1.27
2023-04-19T03:35:59.913Z,1.00
2023-04-19T03:39:05.305Z,1.20
2023-04-19T03:42:13.633Z,1.10
2023-04-19T03:45:48.001Z,1.30
2023-04-19T03:48:54.092Z,1.73
2023-04-19T03:52:01.105Z,1.60
2023-04-19T03:55:07.443Z,1.70
2023-04-19T03:58:18.278Z,1.70
2023-04-19T04:01:41.900Z,1.60
2023-04-19T04:04:47.526Z,1.90
2023-04-19T04:07:53.364Z,1.90
2023-04-19T04:10:59.677Z,1.93
2023-04-19T04:14:06.295Z,2.20
2023-04-19T04:17:17.025Z,2.10
2023-04-19T04:20:22.724Z,2.30
2023-04-19T04:23:31.177Z,1.87
2023-04-19T04:26:39.530Z,2.13
2023-04-19T04:30:04.436Z,2.10
2023-04-19T04:33:12.037Z,2.23
2023-04-19T04:36:19.340Z,2.20
2023-04-19T04:39:26.430Z,2.10
2023-04-19T04:42:31.625Z,2.40
2023-04-19T04:45:39.038Z,2.20
2023-04-19T04:48:44.341Z,2.63
2023-04-19T04:51:49.499Z,2.00
2023-04-19T04:54:55.285Z,1.90
2023-04-19T04:58:06.858Z,2.40
2023-04-19T05:01:28.246Z,1.90
2023-04-19T05:04:33.604Z,1.77
2023-04-19T05:07:39.968Z,2.00
2023-04-19T05:10:45.497Z,1.60
2023-04-19T05:13:53.182Z,1.57
2023-04-19T05:16:59.679Z,1.40
2023-04-19T05:20:05.806Z,1.70
2023-04-19T05:23:11.690Z,1.43
2023-04-19T05:26:17.362Z,1.30
2023-04-19T05:29:23.712Z,1.50
2023-04-19T05:32:33.615Z,1.20
2023-04-19T05:35:41.729Z,1.60
2023-04-19T05:38:47.065Z,1.50
2023-04-19T05:41:52.538Z,1.50
2023-04-19T05:44:57.752Z,1.40
2023-04-19T05:48:04.449Z,1.37
2023-04-19T05:51:29.761Z,1.20
2023-04-19T05:55:03.679Z,1.30
2023-04-19T05:58:11.304Z,1.77
2023-04-19T06:01:16.761Z,1.50
2023-04-19T06:04:24.056Z,1.43
2023-04-19T06:07:32.899Z,1.23
2023-04-19T06:10:53.765Z,1.30
2023-04-19T06:14:02.434Z,1.30
2023-04-19T06:17:07.578Z,1.40
2023-04-19T06:20:16.634Z,1.27
2023-04-19T06:23:21.898Z,1.20
2023-04-19T06:26:27.038Z,1.37
2023-04-19T06:29:32.064Z,1.20
2023-04-19T06:32:37.259Z,1.30
2023-04-19T06:35:43.806Z,1.27
2023-04-19T06:38:50.157Z,1.40
2023-04-19T06:41:55.605Z,1.30
2023-04-19T06:45:01.528Z,1.20
2023-04-19T06:48:07.416Z,1.27
2023-04-19T06:51:14.282Z,1.38
2023-04-19T06:54:19.426Z,1.48
2023-04-19T06:57:25.136Z,1.40
2023-04-19T07:00:30.305Z,1.58
2023-04-19T07:03:35.653Z,1.40
2023-04-19T07:06:42.607Z,1.55
2023-04-19T07:09:47.675Z,1.20
2023-04-19T07:12:53.404Z,1.50
2023-04-19T07:15:58.565Z,1.40
2023-04-19T07:19:03.761Z,1.02
2023-04-19T07:22:10.349Z,1.20
2023-04-19T07:25:15.647Z,1.30
2023-04-19T07:28:20.928Z,1.42
2023-04-19T07:31:26.259Z,1.30
2023-04-19T07:34:31.338Z,1.25
2023-04-19T07:37:38.008Z,1.60
2023-04-19T07:40:43.029Z,0.98
2023-04-19T07:43:48.201Z,1.30
2023-04-19T07:46:54.376Z,1.15
2023-04-19T07:49:59.876Z,1.15
2023-04-19T07:53:06.381Z,1.00
2023-04-19T07:56:14.406Z,1.10
2023-04-19T07:59:19.534Z,1.10
2023-04-19T08:02:24.814Z,1.10
2023-04-19T08:05:30.509Z,1.10
2023-04-19T08:08:37.703Z,1.13
2023-04-19T08:11:43.276Z,1.10
2023-04-19T08:15:01.519Z,1.20
2023-04-19T08:18:14.334Z,1.10
2023-04-19T08:21:23.969Z,1.20
2023-04-19T08:24:32.712Z,1.40
2023-04-19T08:27:38.349Z,1.25
2023-04-19T08:30:43.476Z,1.30
2023-04-19T08:33:48.699Z,1.50
2023-04-19T08:37:03.396Z,1.00
2023-04-19T08:40:14.655Z,1.08
2023-04-19T08:43:19.980Z,1.10
2023-04-19T08:46:26.924Z,0.90
2023-04-19T08:49:32.851Z,0.80
2023-04-19T08:52:51.969Z,0.93
2023-04-19T08:59:18.551Z,0.95
2023-04-19T09:02:24.861Z,1.10
2023-04-19T09:05:30.321Z,1.38
2023-04-19T09:08:35.558Z,1.05
2023-04-19T09:11:42.170Z,1.10
2023-04-19T09:18:08.220Z,1.00
2023-04-19T09:21:29.736Z,0.90
2023-04-19T09:27:50.520Z,0.90
2023-04-19T09:31:06.799Z,1.00
2023-04-19T09:34:16.698Z,1.20
2023-04-19T09:37:41.616Z,1.02
2023-04-19T09:40:47.790Z,0.80
2023-04-19T09:47:02.813Z,1.15
2023-04-19T09:50:21.935Z,1.02
2023-04-19T09:53:29.889Z,1.10
2023-04-19T09:56:35.197Z,1.10
2023-04-19T09:59:41.676Z,1.20
2023-04-19T10:02:54.673Z,1.00
2023-04-19T10:06:04.354Z,1.17
2023-04-19T10:09:16.842Z,1.10
2023-04-19T10:12:46.292Z,1.45
2023-04-19T10:15:53.998Z,1.10
2023-04-19T10:19:00.760Z,1.17
2023-04-19T10:22:07.228Z,1.05
2023-04-19T10:25:15.080Z,1.13
2023-04-19T10:28:20.340Z,1.42
2023-04-19T10:31:29.158Z,1.20
2023-04-19T10:34:41.225Z,1.02
2023-04-19T10:38:06.331Z,1.25
2023-04-19T10:41:17.467Z,1.20
2023-04-19T10:44:23.300Z,1.05
2023-04-19T10:51:22.501Z,1.13
2023-04-19T10:54:38.121Z,1.00
2023-04-19T10:58:09.247Z,1.02
2023-04-19T11:01:38.450Z,1.00
2023-04-19T11:05:20.310Z,0.80
2023-04-19T11:08:38.170Z,0.70
2023-04-19T11:11:44.515Z,1.05
2023-04-19T11:15:00.307Z,1.10
2023-04-19T11:18:13.047Z,1.00
2023-04-19T11:21:34.939Z,1.00
2023-04-19T11:24:50.676Z,1.10
2023-04-19T11:28:13.017Z,1.00
2023-04-19T11:31:22.982Z,0.80
2023-04-19T11:34:50.212Z,1.20
2023-04-19T11:38:02.384Z,1.00
2023-04-19T11:41:14.349Z,0.90
2023-04-19T11:44:27.291Z,0.90
2023-04-19T11:47:39.001Z,0.80
2023-04-19T11:50:49.967Z,0.93
2023-04-19T11:53:58.056Z,0.95
2023-04-19T11:57:08.205Z,0.73
2023-04-19T12:00:16.108Z,1.48
2023-04-19T12:03:27.438Z,1.00
2023-04-19T12:06:34.734Z,1.00
2023-04-19T12:09:41.767Z,1.10
2023-04-19T12:12:51.493Z,0.90
2023-04-19T12:15:59.692Z,0.85
2023-04-19T12:19:18.394Z,1.02
2023-04-19T12:22:26.409Z,1.25
2023-04-19T12:25:34.225Z,0.90
2023-04-19T12:28:43.111Z,0.93
2023-04-19T12:31:49.272Z,0.90
2023-04-19T12:35:00.389Z,0.95
2023-04-19T12:41:31.742Z,0.82
2023-04-19T12:44:40.037Z,1.00
2023-04-19T12:47:47.548Z,0.85
2023-04-19T12:50:54.136Z,1.25
2023-04-19T12:54:03.426Z,1.05
2023-04-19T12:57:09.717Z,1.20
2023-04-19T13:00:19.329Z,1.05
2023-04-19T13:03:33.425Z,0.90
2023-04-19T13:06:42.667Z,1.10
2023-04-19T13:09:50.544Z,0.93
2023-04-19T13:13:02.117Z,0.90
2023-04-19T13:16:18.579Z,1.00
2023-04-19T13:19:42.366Z,1.10
2023-04-19T13:22:51.127Z,1.10
2023-04-19T13:26:01.810Z,1.02
2023-04-19T13:29:13.767Z,1.33
2023-04-19T13:32:27.246Z,1.20
2023-04-19T13:35:36.114Z,1.55
2023-04-19T13:38:56.932Z,1.10
2023-04-19T13:42:07.378Z,0.90
2023-04-19T13:45:22.136Z,0.95
2023-04-19T13:48:35.884Z,0.90
2023-04-19T13:51:51.001Z,0.90
2023-04-19T13:55:01.314Z,1.30
2023-04-19T13:58:08.199Z,1.17
2023-04-19T14:01:28.489Z,1.05
2023-04-19T14:04:37.763Z,1.10
2023-04-19T14:07:51.040Z,1.00
2023-04-19T14:11:04.597Z,1.00
2023-04-19T14:18:07.560Z,1.05
2023-04-19T14:21:47.492Z,1.00
2023-04-19T14:24:59.087Z,1.00
2023-04-19T14:28:41.506Z,0.90
2023-04-19T14:36:12.638Z,1.17
2023-04-19T14:43:20.511Z,1.10
2023-04-19T14:46:45.551Z,1.15
2023-04-19T14:49:53.923Z,1.00
2023-04-19T14:52:59.936Z,1.25
2023-04-19T14:56:06.992Z,1.40
2023-04-19T14:59:15.554Z,1.20
2023-04-19T15:02:23.004Z,1.10
2023-04-19T15:05:30.498Z,1.10
2023-04-19T15:08:47.913Z,1.10
2023-04-19T15:11:57.924Z,1.30
2023-04-19T15:20:19.568Z,1.10
2023-04-19T15:23:59.281Z,1.30
2023-04-19T15:27:09.243Z,1.00
2023-04-19T15:30:21.306Z,1.02
2023-04-19T15:33:28.377Z,1.42
2023-04-19T15:36:37.543Z,1.20
2023-04-19T15:40:05.389Z,1.25
2023-04-19T15:43:14.419Z,1.15
2023-04-19T15:46:21.598Z,1.02
2023-04-19T15:49:28.077Z,1.00
2023-04-19T15:52:34.492Z,1.20
2023-04-19T15:55:54.760Z,1.00
2023-04-19T15:59:06.755Z,1.02
2023-04-19T16:02:28.898Z,1.10
2023-04-19T16:05:39.277Z,1.10
2023-04-19T16:08:45.352Z,1.30
2023-04-19T16:11:56.777Z,1.25
2023-04-19T16:15:04.707Z,1.30
2023-04-19T16:18:14.328Z,1.20
2023-04-19T16:21:25.028Z,1.10
2023-04-19T16:24:42.525Z,1.10
2023-04-19T16:28:09.905Z,1.30
2023-04-19T16:31:38.065Z,1.05
2023-04-19T16:34:55.024Z,1.10
2023-04-19T16:38:08.429Z,1.20
2023-04-19T16:44:58.967Z,1.30
2023-04-19T16:48:11.317Z,1.15
2023-04-19T16:51:18.043Z,1.10
2023-04-19T16:54:24.709Z,1.30
2023-04-19T16:57:34.424Z,1.30
2023-04-19T17:00:44.888Z,1.13
2023-04-19T17:03:54.714Z,1.15
2023-04-19T17:07:13.069Z,1.10
2023-04-19T17:10:20.471Z,1.20
2023-04-19T17:16:54.803Z,1.00
2023-04-19T17:20:10.758Z,1.30
2023-04-19T17:23:18.493Z,1.00
2023-04-19T17:26:28.618Z,1.00
2023-04-19T17:29:56.893Z,1.05
2023-04-19T17:33:19.603Z,1.63
2023-04-19T17:36:31.277Z,1.17
2023-04-19T17:43:33.152Z,1.40
2023-04-19T17:46:47.265Z,1.23
2023-04-19T17:50:30.224Z,1.60
2023-04-19T17:54:35.366Z,1.60
2023-04-19T17:58:11.474Z,1.30
2023-04-19T18:08:56.760Z,1.20
2023-04-19T18:16:19.873Z,1.10
2023-04-19T18:19:58.711Z,1.08
2023-04-19T18:23:25.306Z,1.00
2023-04-19T18:26:42.285Z,1.08
2023-04-19T18:30:05.705Z,1.33
2023-04-19T18:33:26.920Z,1.20
2023-04-19T18:36:47.631Z,1.67
2023-04-19T18:43:33.223Z,1.00
2023-04-19T18:46:44.146Z,1.20
2023-04-19T18:50:07.988Z,1.10
2023-04-19T18:53:38.007Z,1.10
2023-04-19T19:00:39.143Z,1.30
2023-04-19T19:04:10.628Z,1.40
2023-04-19T19:07:38.664Z,0.90
2023-04-19T19:11:14.267Z,1.58
2023-04-19T19:14:34.738Z,1.02
2023-04-19T19:17:50.915Z,1.20
2023-04-19T19:21:04.069Z,1.30
2023-04-19T19:24:17.365Z,1.00
2023-04-19T19:27:33.978Z,0.90
2023-04-19T19:30:47.932Z,1.10
2023-04-19T19:34:14.729Z,1.10
2023-04-19T19:37:45.036Z,1.00
2023-04-19T19:44:41.655Z,1.35
2023-04-19T19:48:05.479Z,1.27
2023-04-19T19:51:42.217Z,1.10
2023-04-19T19:54:47.005Z,1.15
2023-04-19T20:07:13.596Z,0.90
2023-04-19T20:09:52.412Z,0.80
2023-04-19T20:13:05.366Z,1.00
2023-04-19T20:16:26.638Z,0.85
2023-04-19T20:19:37.895Z,0.90
2023-04-19T20:22:46.415Z,1.02
2023-04-19T20:25:53.460Z,1.20
2023-04-19T20:28:59.158Z,1.88
2023-04-19T20:32:06.140Z,1.48
2023-04-19T20:35:15.803Z,1.17
2023-04-19T20:38:23.917Z,1.30
2023-04-19T20:41:30.210Z,1.75
2023-04-19T20:44:36.697Z,1.55
2023-04-19T20:47:43.125Z,1.60
2023-04-19T20:50:52.455Z,1.50
2023-04-19T20:53:58.277Z,1.20
2023-04-19T20:57:04.979Z,1.10
2023-04-19T21:00:17.790Z,1.23
2023-04-19T21:03:24.601Z,1.00
2023-04-19T21:06:33.037Z,1.10
2023-04-19T21:09:38.845Z,0.90
2023-04-19T21:12:45.027Z,0.93
2023-04-19T21:15:51.474Z,0.80
2023-04-19T21:18:58.059Z,0.93
2023-04-19T21:22:05.850Z,0.82
2023-04-19T21:25:14.822Z,0.82
2023-04-19T21:28:21.050Z,0.98
2023-04-19T21:31:33.282Z,0.93
2023-04-19T21:34:40.502Z,0.75
2023-04-19T21:37:51.633Z,0.85
2023-04-19T21:40:58.990Z,0.90
2023-04-19T21:44:09.485Z,0.90
2023-04-19T21:47:21.519Z,1.10
2023-04-19T21:50:31.108Z,1.02
2023-04-19T21:53:46.332Z,0.80
2023-04-19T21:56:54.227Z,0.80
2023-04-19T22:00:00.603Z,1.10
2023-04-19T22:03:07.742Z,1.00
2023-04-19T22:06:17.316Z,1.08
2023-04-19T22:09:26.238Z,1.10
2023-04-19T22:12:31.601Z,0.90
2023-04-19T22:15:38.693Z,1.03
2023-04-19T22:18:44.348Z,1.20
2023-04-19T22:21:51.223Z,0.87
2023-04-19T22:24:58.448Z,1.23
2023-04-19T22:28:07.243Z,1.00
2023-04-19T22:31:13.656Z,0.93
2023-04-19T22:34:19.848Z,1.07
2023-04-19T22:37:25.412Z,1.30
2023-04-19T22:40:33.313Z,0.90
2023-04-19T22:43:38.771Z,1.00
2023-04-19T22:46:45.196Z,1.07
2023-04-19T22:49:50.696Z,1.00
2023-04-19T22:52:56.785Z,0.90
2023-04-19T22:56:04.323Z,1.10
2023-04-19T22:59:10.531Z,0.90
2023-04-19T23:02:16.277Z,0.90
2023-04-19T23:05:22.963Z,1.00
2023-04-19T23:08:29.084Z,1.07
2023-04-19T23:11:37.670Z,1.07
2023-04-19T23:14:43.430Z,0.93
2023-04-19T23:17:50.204Z,1.10
2023-04-19T23:20:56.180Z,1.67
2023-04-19T23:24:02.633Z,1.13
2023-04-19T23:27:10.087Z,1.10
2023-04-19T23:30:21.265Z,1.10
2023-04-19T23:33:26.876Z,1.03
2023-04-19T23:36:32.954Z,1.10
2023-04-19T23:39:38.943Z,1.10
2023-04-19T23:42:46.878Z,1.10
2023-04-19T23:45:52.289Z,1.10
2023-04-19T23:48:58.357Z,1.00
2023-04-19T23:52:04.008Z,1.00
2023-04-19T23:55:10.718Z,1.10
2023-04-19T23:58:18.080Z,1.20
